sensor_id;sensor_type;location;lat;lon;timestamp;pressure;altitude;pressure_sealevel;temperature;humidity
16255;BME280;8235;52.198;9.904;2023-02-14T00:00:47;102912.13;;;1.18;98.00
16255;BME280;8235;52.198;9.904;2023-02-14T00:03:14;102902.47;;;1.17;98.23
16255;BME280;8235;52.198;9.904;2023-02-14T00:05:40;102910.34;;;1.17;98.19
16255;BME280;8235;52.198;9.904;2023-02-14T00:08:07;102900.75;;;1.18;98.74
16255;BME280;8235;52.198;9.904;2023-02-14T00:10:33;102899.84;;;1.16;98.65
16255;BME280;8235;52.198;9.904;2023-02-14T00:13:01;102900.69;;;1.15;98.79
16255;BME280;8235;52.198;9.904;2023-02-14T00:15:28;102900.69;;;1.15;99.26
16255;BME280;8235;52.198;9.904;2023-02-14T00:17:55;102898.94;;;1.14;99.36
16255;BME280;8235;52.198;9.904;2023-02-14T00:20:24;102898.94;;;1.14;99.39
16255;BME280;8235;52.198;9.904;2023-02-14T00:22:51;102901.56;;;1.15;99.37
16255;BME280;8235;52.198;9.904;2023-02-14T00:25:18;102904.19;;;1.15;99.30
16255;BME280;8235;52.198;9.904;2023-02-14T00:27:44;102896.28;;;1.12;99.63
16255;BME280;8235;52.198;9.904;2023-02-14T00:30:12;102893.63;;;1.09;99.76
16255;BME280;8235;52.198;9.904;2023-02-14T00:32:39;102901.50;;;1.09;100.00
16255;BME280;8235;52.198;9.904;2023-02-14T00:35:07;102898.88;;;1.09;100.00
16255;BME280;8235;52.198;9.904;2023-02-14T00:37:34;102897.13;;;1.08;100.00
16255;BME280;8235;52.198;9.904;2023-02-14T00:40:00;102887.50;;;1.07;100.00
16255;BME280;8235;52.198;9.904;2023-02-14T00:42:27;102894.50;;;1.07;100.00
16255;BME280;8235;52.198;9.904;2023-02-14T00:44:53;102892.75;;;1.07;100.00
16255;BME280;8235;52.198;9.904;2023-02-14T00:47:21;102908.47;;;1.06;100.00
16255;BME280;8235;52.198;9.904;2023-02-14T00:49:47;102910.19;;;1.02;100.00
16255;BME280;8235;52.198;9.904;2023-02-14T00:52:14;102904.00;;;0.98;100.00
16255;BME280;8235;52.198;9.904;2023-02-14T00:54:41;102912.72;;;0.96;100.00
16255;BME280;8235;52.198;9.904;2023-02-14T00:57:07;102910.06;;;0.93;100.00
16255;BME280;8235;52.198;9.904;2023-02-14T00:59:33;102904.75;;;0.90;100.00
16255;BME280;8235;52.198;9.904;2023-02-14T01:02:00;102908.22;;;0.86;100.00
16255;BME280;8235;52.198;9.904;2023-02-14T01:04:28;102908.19;;;0.83;100.00
16255;BME280;8235;52.198;9.904;2023-02-14T01:06:54;102909.91;;;0.81;100.00
16255;BME280;8235;52.198;9.904;2023-02-14T01:09:21;102908.16;;;0.80;100.00
16255;BME280;8235;52.198;9.904;2023-02-14T01:11:47;102901.97;;;0.76;100.00
16255;BME280;8235;52.198;9.904;2023-02-14T01:14:14;102903.72;;;0.76;100.00
16255;BME280;8235;52.198;9.904;2023-02-14T01:16:40;102903.66;;;0.73;100.00
16255;BME280;8235;52.198;9.904;2023-02-14T01:19:06;102904.50;;;0.68;100.00
16255;BME280;8235;52.198;9.904;2023-02-14T01:21:35;102903.59;;;0.65;100.00
16255;BME280;8235;52.198;9.904;2023-02-14T01:24:04;102897.44;;;0.63;100.00
16255;BME280;8235;52.198;9.904;2023-02-14T01:26:32;102892.16;;;0.61;100.00
16255;BME280;8235;52.198;9.904;2023-02-14T01:28:58;102901.78;;;0.61;100.00
16255;BME280;8235;52.198;9.904;2023-02-14T01:31:26;102898.25;;;0.59;100.00
16255;BME280;8235;52.198;9.904;2023-02-14T01:33:53;102906.09;;;0.57;100.00
16255;BME280;8235;52.198;9.904;2023-02-14T01:36:22;102892.97;;;0.56;100.00
16255;BME280;8235;52.198;9.904;2023-02-14T01:38:52;102904.31;;;0.55;100.00
16255;BME280;8235;52.198;9.904;2023-02-14T01:41:20;102907.81;;;0.55;100.00
16255;BME280;8235;52.198;9.904;2023-02-14T01:43:57;102906.94;;;0.55;100.00
16255;BME280;8235;52.198;9.904;2023-02-14T01:46:26;102899.06;;;0.55;100.00
16255;BME280;8235;52.198;9.904;2023-02-14T01:48:55;102907.81;;;0.55;100.00
16255;BME280;8235;52.198;9.904;2023-02-14T01:51:24;102901.69;;;0.53;100.00
16255;BME280;8235;52.198;9.904;2023-02-14T01:53:52;102900.81;;;0.53;100.00
16255;BME280;8235;52.198;9.904;2023-02-14T01:56:24;102900.78;;;0.51;100.00
16255;BME280;8235;52.198;9.904;2023-02-14T01:58:54;102897.28;;;0.51;100.00
16255;BME280;8235;52.198;9.904;2023-02-14T02:01:23;102899.03;;;0.52;100.00
16255;BME280;8235;52.198;9.904;2023-02-14T02:03:52;102892.91;;;0.50;100.00
16255;BME280;8235;52.198;9.904;2023-02-14T02:06:21;102902.50;;;0.49;100.00
16255;BME280;8235;52.198;9.904;2023-02-14T02:08:57;102892.00;;;0.49;100.00
16255;BME280;8235;52.198;9.904;2023-02-14T02:11:24;102898.09;;;0.47;100.00
16255;BME280;8235;52.198;9.904;2023-02-14T02:13:51;102884.97;;;0.45;100.00
16255;BME280;8235;52.198;9.904;2023-02-14T02:16:27;102884.06;;;0.45;100.00
16255;BME280;8235;52.198;9.904;2023-02-14T02:19:09;102882.31;;;0.44;100.00
16255;BME280;8235;52.198;9.904;2023-02-14T02:21:53;102877.94;;;0.43;100.00
16255;BME280;8235;52.198;9.904;2023-02-14T02:24:35;102880.53;;;0.41;100.00
16255;BME280;8235;52.198;9.904;2023-02-14T02:27:20;102879.56;;;0.36;100.00
16255;BME280;8235;52.198;9.904;2023-02-14T02:33:31;102859.41;;;0.29;100.00
16255;BME280;8235;52.198;9.904;2023-02-14T02:36:17;102857.66;;;0.29;100.00
16255;BME280;8235;52.198;9.904;2023-02-14T02:39:02;102861.16;;;0.30;100.00
16255;BME280;8235;52.198;9.904;2023-02-14T02:41:38;102850.69;;;0.30;100.00
16255;BME280;8235;52.198;9.904;2023-02-14T02:44:15;102848.00;;;0.27;100.00
16255;BME280;8235;52.198;9.904;2023-02-14T02:46:51;102851.47;;;0.26;100.00
16255;BME280;8235;52.198;9.904;2023-02-14T02:49:33;102861.97;;;0.26;100.00
16255;BME280;8235;52.198;9.904;2023-02-14T02:52:26;102848.78;;;0.21;100.00
16255;BME280;8235;52.198;9.904;2023-02-14T02:55:16;102848.75;;;0.20;100.00
16255;BME280;8235;52.198;9.904;2023-02-14T02:57:47;102849.63;;;0.19;100.00
16255;BME280;8235;52.198;9.904;2023-02-14T03:00:15;102851.34;;;0.18;100.00
16255;BME280;8235;52.198;9.904;2023-02-14T03:02:46;102845.28;;;0.18;100.00
16255;BME280;8235;52.198;9.904;2023-02-14T03:05:32;102846.13;;;0.17;100.00
16255;BME280;8235;52.198;9.904;2023-02-14T03:08:01;102846.97;;;0.16;100.00
16255;BME280;8235;52.198;9.904;2023-02-14T03:10:30;102839.94;;;0.12;100.00
16255;BME280;8235;52.198;9.904;2023-02-14T03:13:24;102845.09;;;0.07;100.00
16255;BME280;8235;52.198;9.904;2023-02-14T03:19:05;102840.53;;;-0.06;100.00
16255;BME280;8235;52.198;9.904;2023-02-14T03:21:55;102850.06;;;-0.11;100.00
16255;BME280;8235;52.198;9.904;2023-02-14T03:24:27;102840.34;;;-0.17;100.00
16255;BME280;8235;52.198;9.904;2023-02-14T03:27:01;102834.25;;;-0.19;100.00
16255;BME280;8235;52.198;9.904;2023-02-14T03:29:39;102842.06;;;-0.20;100.00
16255;BME280;8235;52.198;9.904;2023-02-14T03:32:10;102840.28;;;-0.23;100.00
16255;BME280;8235;52.198;9.904;2023-02-14T03:34:45;102830.59;;;-0.27;100.00
16255;BME280;8235;52.198;9.904;2023-02-14T03:37:15;102828.78;;;-0.31;100.00
16255;BME280;8235;52.198;9.904;2023-02-14T03:39:51;102826.97;;;-0.37;100.00
16255;BME280;8235;52.198;9.904;2023-02-14T03:42:24;102819.88;;;-0.42;100.00
16255;BME280;8235;52.198;9.904;2023-02-14T03:44:53;102820.69;;;-0.46;100.00
16255;BME280;8235;52.198;9.904;2023-02-14T03:47:23;102815.41;;;-0.48;100.00
16255;BME280;8235;52.198;9.904;2023-02-14T03:49:53;102810.16;;;-0.49;100.00
16255;BME280;8235;52.198;9.904;2023-02-14T03:52:22;102811.03;;;-0.49;100.00
16255;BME280;8235;52.198;9.904;2023-02-14T03:54:53;102817.97;;;-0.51;100.00
16255;BME280;8235;52.198;9.904;2023-02-14T03:57:24;102814.47;;;-0.53;100.00
16255;BME280;8235;52.198;9.904;2023-02-14T03:59:52;102811.81;;;-0.56;100.00
16255;BME280;8235;52.198;9.904;2023-02-14T04:02:24;102798.69;;;-0.57;100.00
16255;BME280;8235;52.198;9.904;2023-02-14T04:04:53;102803.03;;;-0.59;100.00
16255;BME280;8235;52.198;9.904;2023-02-14T04:07:23;102798.66;;;-0.60;100.00
16255;BME280;8235;52.198;9.904;2023-02-14T04:09:51;102803.84;;;-0.62;100.00
16255;BME280;8235;52.198;9.904;2023-02-14T04:12:18;102805.53;;;-0.65;100.00
16255;BME280;8235;52.198;9.904;2023-02-14T04:14:45;102805.50;;;-0.67;100.00
16255;BME280;8235;52.198;9.904;2023-02-14T04:17:11;102803.69;;;-0.70;100.00
16255;BME280;8235;52.198;9.904;2023-02-14T04:19:55;102801.09;;;-0.70;100.00
16255;BME280;8235;52.198;9.904;2023-02-14T04:22:22;102795.84;;;-0.73;100.00
16255;BME280;8235;52.198;9.904;2023-02-14T04:24:48;102794.03;;;-0.75;100.00
16255;BME280;8235;52.198;9.904;2023-02-14T04:27:16;102803.59;;;-0.77;100.00
16255;BME280;8235;52.198;9.904;2023-02-14T04:29:45;102795.69;;;-0.80;100.00
16255;BME280;8235;52.198;9.904;2023-02-14T04:32:13;102801.75;;;-0.83;100.00
16255;BME280;8235;52.198;9.904;2023-02-14T04:34:41;102800.84;;;-0.83;100.00
16255;BME280;8235;52.198;9.904;2023-02-14T04:37:07;102804.34;;;-0.83;100.00
16255;BME280;8235;52.198;9.904;2023-02-14T04:39:34;102803.44;;;-0.85;100.00
16255;BME280;8235;52.198;9.904;2023-02-14T04:42:01;102803.41;;;-0.86;100.00
16255;BME280;8235;52.198;9.904;2023-02-14T04:44:29;102804.22;;;-0.89;100.00
16255;BME280;8235;52.198;9.904;2023-02-14T04:46:58;102803.31;;;-0.92;100.00
16255;BME280;8235;52.198;9.904;2023-02-14T04:49:24;102801.53;;;-0.95;100.00
16255;BME280;8235;52.198;9.904;2023-02-14T04:51:51;102797.97;;;-0.98;100.00
16255;BME280;8235;52.198;9.904;2023-02-14T04:54:17;102804.03;;;-1.01;100.00
16255;BME280;8235;52.198;9.904;2023-02-14T04:56:44;102801.34;;;-1.04;100.00
16255;BME280;8235;52.198;9.904;2023-02-14T04:59:10;102805.66;;;-1.06;100.00
16255;BME280;8235;52.198;9.904;2023-02-14T05:01:38;102801.25;;;-1.10;100.00
16255;BME280;8235;52.198;9.904;2023-02-14T05:04:04;102790.66;;;-1.16;100.00
16255;BME280;8235;52.198;9.904;2023-02-14T05:06:31;102806.31;;;-1.18;100.00
16255;BME280;8235;52.198;9.904;2023-02-14T05:08:58;102806.28;;;-1.19;100.00
16255;BME280;8235;52.198;9.904;2023-02-14T05:11:25;102794.94;;;-1.20;100.00
16255;BME280;8235;52.198;9.904;2023-02-14T05:13:52;102792.34;;;-1.20;100.00
16255;BME280;8235;52.198;9.904;2023-02-14T05:16:18;102788.88;;;-1.19;100.00
16255;BME280;8235;52.198;9.904;2023-02-14T05:18:46;102794.13;;;-1.17;100.00
16255;BME280;8235;52.198;9.904;2023-02-14T05:21:12;102788.00;;;-1.18;100.00
16255;BME280;8235;52.198;9.904;2023-02-14T05:23:39;102793.28;;;-1.16;100.00
16255;BME280;8235;52.198;9.904;2023-02-14T05:26:06;102783.69;;;-1.16;100.00
16255;BME280;8235;52.198;9.904;2023-02-14T05:28:33;102788.97;;;-1.14;100.00
16255;BME280;8235;52.198;9.904;2023-02-14T05:31:00;102784.59;;;-1.15;100.00
16255;BME280;8235;52.198;9.904;2023-02-14T05:33:27;102785.50;;;-1.13;100.00
16255;BME280;8235;52.198;9.904;2023-02-14T05:35:57;102782.88;;;-1.13;100.00
16255;BME280;8235;52.198;9.904;2023-02-14T05:38:24;102783.75;;;-1.13;100.00
16255;BME280;8235;52.198;9.904;2023-02-14T05:40:50;102781.16;;;-1.13;100.00
16255;BME280;8235;52.198;9.904;2023-02-14T05:43:17;102783.75;;;-1.13;100.00
16255;BME280;8235;52.198;9.904;2023-02-14T05:45:43;102789.84;;;-1.14;100.00
16255;BME280;8235;52.198;9.904;2023-02-14T05:48:10;102793.31;;;-1.15;100.00
16255;BME280;8235;52.198;9.904;2023-02-14T05:50:36;102779.28;;;-1.18;100.00
16255;BME280;8235;52.198;9.904;2023-02-14T05:53:04;102787.09;;;-1.20;100.00
16255;BME280;8235;52.198;9.904;2023-02-14T05:55:30;102786.19;;;-1.22;100.00
16255;BME280;8235;52.198;9.904;2023-02-14T05:57:57;102791.38;;;-1.23;100.00
16255;BME280;8235;52.198;9.904;2023-02-14T06:00:24;102789.63;;;-1.24;100.00
16255;BME280;8235;52.198;9.904;2023-02-14T06:02:50;102790.50;;;-1.24;100.00
16255;BME280;8235;52.198;9.904;2023-02-14T06:05:17;102784.41;;;-1.24;100.00
16255;BME280;8235;52.198;9.904;2023-02-14T06:07:44;102800.06;;;-1.26;100.00
16255;BME280;8235;52.198;9.904;2023-02-14T06:10:16;102804.44;;;-1.26;100.00
16255;BME280;8235;52.198;9.904;2023-02-14T06:12:43;102795.66;;;-1.28;100.00
16255;BME280;8235;52.198;9.904;2023-02-14T06:15:10;102793.88;;;-1.31;100.00
16255;BME280;8235;52.198;9.904;2023-02-14T06:17:36;102793.81;;;-1.34;100.00
16255;BME280;8235;52.198;9.904;2023-02-14T06:20:04;102798.97;;;-1.37;100.00
16255;BME280;8235;52.198;9.904;2023-02-14T06:22:31;102793.66;;;-1.40;100.00
16255;BME280;8235;52.198;9.904;2023-02-14T06:24:57;102790.19;;;-1.41;100.00
16255;BME280;8235;52.198;9.904;2023-02-14T06:27:25;102785.78;;;-1.42;100.00
16255;BME280;8235;52.198;9.904;2023-02-14T06:29:52;102793.63;;;-1.42;100.00
16255;BME280;8235;52.198;9.904;2023-02-14T06:32:18;102795.38;;;-1.42;100.00
16255;BME280;8235;52.198;9.904;2023-02-14T06:34:44;102785.78;;;-1.42;100.00
16255;BME280;8235;52.198;9.904;2023-02-14T06:37:11;102795.38;;;-1.42;100.00
16255;BME280;8235;52.198;9.904;2023-02-14T06:39:37;102802.31;;;-1.43;100.00
16255;BME280;8235;52.198;9.904;2023-02-14T06:42:04;102798.84;;;-1.43;100.00
16255;BME280;8235;52.198;9.904;2023-02-14T06:44:32;102796.22;;;-1.45;100.00
16255;BME280;8235;52.198;9.904;2023-02-14T06:46:58;102803.16;;;-1.47;100.00
16255;BME280;8235;52.198;9.904;2023-02-14T06:49:25;102801.34;;;-1.49;100.00
16255;BME280;8235;52.198;9.904;2023-02-14T06:51:51;102803.06;;;-1.50;100.00
16255;BME280;8235;52.198;9.904;2023-02-14T06:54:18;102803.97;;;-1.49;100.00
16255;BME280;8235;52.198;9.904;2023-02-14T06:56:44;102810.94;;;-1.48;100.00
16255;BME280;8235;52.198;9.904;2023-02-14T06:59:11;102806.56;;;-1.49;100.00
16255;BME280;8235;52.198;9.904;2023-02-14T07:01:39;102811.78;;;-1.49;100.00
16255;BME280;8235;52.198;9.904;2023-02-14T07:04:05;102810.06;;;-1.49;100.00
16255;BME280;8235;52.198;9.904;2023-02-14T07:06:31;102814.41;;;-1.49;100.00
16255;BME280;8235;52.198;9.904;2023-02-14T07:08:58;102809.19;;;-1.49;100.00
16255;BME280;8235;52.198;9.904;2023-02-14T07:11:24;102811.84;;;-1.48;100.00
16255;BME280;8235;52.198;9.904;2023-02-14T07:13:52;102810.09;;;-1.47;100.00
16255;BME280;8235;52.198;9.904;2023-02-14T07:16:19;102802.28;;;-1.46;100.00
16255;BME280;8235;52.198;9.904;2023-02-14T07:18:47;102818.00;;;-1.44;100.00
16255;BME280;8235;52.198;9.904;2023-02-14T07:21:13;102811.94;;;-1.42;100.00
16255;BME280;8235;52.198;9.904;2023-02-14T07:23:40;102818.03;;;-1.41;100.00
16255;BME280;8235;52.198;9.904;2023-02-14T07:26:06;102807.63;;;-1.40;100.00
16255;BME280;8235;52.198;9.904;2023-02-14T07:28:32;102808.50;;;-1.39;100.00
16255;BME280;8235;52.198;9.904;2023-02-14T07:30:59;102810.34;;;-1.35;100.00
16255;BME280;8235;52.198;9.904;2023-02-14T07:33:26;102815.59;;;-1.33;100.00
16255;BME280;8235;52.198;9.904;2023-02-14T07:35:54;102806.06;;;-1.31;100.00
16255;BME280;8235;52.198;9.904;2023-02-14T07:38:20;102798.28;;;-1.28;100.00
16255;BME280;8235;52.198;9.904;2023-02-14T07:40:47;102797.44;;;-1.27;100.00
16255;BME280;8235;52.198;9.904;2023-02-14T07:43:13;102786.97;;;-1.27;100.00
16255;BME280;8235;52.198;9.904;2023-02-14T07:45:40;102791.34;;;-1.25;100.00
16255;BME280;8235;52.198;9.904;2023-02-14T07:48:06;102795.75;;;-1.22;100.00
16255;BME280;8235;52.198;9.904;2023-02-14T07:50:33;102795.81;;;-1.19;100.00
16255;BME280;8235;52.198;9.904;2023-02-14T07:53:00;102795.00;;;-1.17;100.00
16255;BME280;8235;52.198;9.904;2023-02-14T07:55:27;102790.75;;;-1.12;100.00
16255;BME280;8235;52.198;9.904;2023-02-14T07:57:53;102791.69;;;-1.08;100.00
16255;BME280;8235;52.198;9.904;2023-02-14T08:00:21;102789.13;;;-1.05;100.00
16255;BME280;8235;52.198;9.904;2023-02-14T08:02:47;102788.31;;;-1.01;100.00
16255;BME280;8235;52.198;9.904;2023-02-14T08:05:14;102793.66;;;-0.96;100.00
16255;BME280;8235;52.198;9.904;2023-02-14T08:07:40;102790.25;;;-0.92;100.00
16255;BME280;8235;52.198;9.904;2023-02-14T08:10:09;102792.94;;;-0.86;100.00
16255;BME280;8235;52.198;9.904;2023-02-14T08:12:36;102794.84;;;-0.79;100.00
16255;BME280;8235;52.198;9.904;2023-02-14T08:15:20;102788.88;;;-0.72;100.00
16255;BME280;8235;52.198;9.904;2023-02-14T08:18:03;102795.13;;;-0.62;100.00
16255;BME280;8235;52.198;9.904;2023-02-14T08:20:30;102800.50;;;-0.52;100.00
16255;BME280;8235;52.198;9.904;2023-02-14T08:22:56;102791.97;;;-0.42;100.00
16255;BME280;8235;52.198;9.904;2023-02-14T08:25:24;102798.25;;;-0.30;100.00
16255;BME280;8235;52.198;9.904;2023-02-14T08:27:51;102787.97;;;-0.18;100.00
16255;BME280;8235;52.198;9.904;2023-02-14T08:30:19;102795.19;;;-0.04;100.00
16255;BME280;8235;52.198;9.904;2023-02-14T08:32:46;102789.25;;;0.11;100.00
16255;BME280;8235;52.198;9.904;2023-02-14T08:35:12;102791.19;;;0.24;100.00
16255;BME280;8235;52.198;9.904;2023-02-14T08:37:39;102795.75;;;0.39;100.00
16255;BME280;8235;52.198;9.904;2023-02-14T08:40:06;102795.91;;;0.54;100.00
16255;BME280;8235;52.198;9.904;2023-02-14T08:42:34;102797.91;;;0.71;100.00
16255;BME280;8235;52.198;9.904;2023-02-14T08:45:01;102796.28;;;0.85;100.00
16255;BME280;8235;52.198;9.904;2023-02-14T08:47:27;102796.47;;;1.01;100.00
16255;BME280;8235;52.198;9.904;2023-02-14T08:49:54;102794.00;;;1.18;100.00
16255;BME280;8235;52.198;9.904;2023-02-14T08:52:20;102792.41;;;1.35;100.00
16255;BME280;8235;52.198;9.904;2023-02-14T08:54:46;102786.41;;;1.50;100.00
16255;BME280;8235;52.198;9.904;2023-02-14T08:57:13;102782.13;;;1.64;100.00
16255;BME280;8235;52.198;9.904;2023-02-14T08:59:41;102785.75;;;1.80;100.00
16255;BME280;8235;52.198;9.904;2023-02-14T09:02:11;102783.25;;;1.95;100.00
16255;BME280;8235;52.198;9.904;2023-02-14T09:04:37;102779.81;;;2.10;100.00
16255;BME280;8235;52.198;9.904;2023-02-14T09:07:04;102784.28;;;2.25;100.00
16255;BME280;8235;52.198;9.904;2023-02-14T09:09:31;102779.94;;;2.39;100.00
16255;BME280;8235;52.198;9.904;2023-02-14T09:11:58;102778.25;;;2.53;100.00
16255;BME280;8235;52.198;9.904;2023-02-14T09:14:28;102778.31;;;2.70;100.00
16255;BME280;8235;52.198;9.904;2023-02-14T09:16:56;102775.72;;;2.87;100.00
16255;BME280;8235;52.198;9.904;2023-02-14T09:19:25;102773.13;;;3.05;100.00
16255;BME280;8235;52.198;9.904;2023-02-14T09:21:51;102767.91;;;3.20;100.00
16255;BME280;8235;52.198;9.904;2023-02-14T09:24:18;102762.63;;;3.34;100.00
16255;BME280;8235;52.198;9.904;2023-02-14T09:26:44;102757.34;;;3.47;100.00
16255;BME280;8235;52.198;9.904;2023-02-14T09:29:11;102764.38;;;3.62;100.00
16255;BME280;8235;52.198;9.904;2023-02-14T09:31:40;102758.19;;;3.78;100.00
16255;BME280;8235;52.198;9.904;2023-02-14T09:34:08;102756.41;;;3.94;100.00
16255;BME280;8235;52.198;9.904;2023-02-14T09:36:34;102768.69;;;4.09;100.00
16255;BME280;8235;52.198;9.904;2023-02-14T09:39:18;102758.97;;;4.25;100.00
16255;BME280;8235;52.198;9.904;2023-02-14T09:41:58;102753.63;;;4.40;100.00
16255;BME280;8235;52.198;9.904;2023-02-14T09:44:30;102757.94;;;4.54;100.00
16255;BME280;8235;52.198;9.904;2023-02-14T09:47:06;102757.88;;;4.68;100.00
16255;BME280;8235;52.198;9.904;2023-02-14T09:49:40;102759.56;;;4.83;100.00
16255;BME280;8235;52.198;9.904;2023-02-14T09:52:11;102758.59;;;4.96;100.00
16255;BME280;8235;52.198;9.904;2023-02-14T09:54:41;102754.97;;;5.11;100.00
16255;BME280;8235;52.198;9.904;2023-02-14T09:57:13;102757.50;;;5.24;100.00
16255;BME280;8235;52.198;9.904;2023-02-14T09:59:49;102763.59;;;5.37;100.00
16255;BME280;8235;52.198;9.904;2023-02-14T10:02:34;102750.25;;;5.51;100.00
16255;BME280;8235;52.198;9.904;2023-02-14T10:05:10;102752.75;;;5.65;100.00
16255;BME280;8235;52.198;9.904;2023-02-14T10:07:46;102748.22;;;5.76;100.00
16255;BME280;8235;52.198;9.904;2023-02-14T10:10:20;102750.78;;;5.89;100.00
16255;BME280;8235;52.198;9.904;2023-02-14T10:12:51;102748.88;;;6.02;100.00
16255;BME280;8235;52.198;9.904;2023-02-14T10:15:23;102752.25;;;6.15;100.00
16255;BME280;8235;52.198;9.904;2023-02-14T10:17:53;102750.34;;;6.27;100.00
16255;BME280;8235;52.198;9.904;2023-02-14T10:20:25;102750.25;;;6.37;100.00
16255;BME280;8235;52.198;9.904;2023-02-14T10:22:59;102750.06;;;6.49;100.00
16255;BME280;8235;52.198;9.904;2023-02-14T10:25:31;102743.78;;;6.57;100.00
16255;BME280;8235;52.198;9.904;2023-02-14T10:28:00;102743.66;;;6.65;100.00
16255;BME280;8235;52.198;9.904;2023-02-14T10:30:35;102740.91;;;6.74;100.00
16255;BME280;8235;52.198;9.904;2023-02-14T10:33:07;102743.44;;;6.82;100.00
16255;BME280;8235;52.198;9.904;2023-02-14T10:35:45;102738.94;;;6.88;100.00
16255;BME280;8235;52.198;9.904;2023-02-14T10:38:24;102747.66;;;6.96;100.00
16255;BME280;8235;52.198;9.904;2023-02-14T10:41:04;102742.25;;;7.03;100.00
16255;BME280;8235;52.198;9.904;2023-02-14T10:43:43;102739.44;;;7.13;99.10
16255;BME280;8235;52.198;9.904;2023-02-14T10:46:20;102740.13;;;7.24;98.03
16255;BME280;8235;52.198;9.904;2023-02-14T10:48:52;102732.94;;;7.34;97.79
16255;BME280;8235;52.198;9.904;2023-02-14T10:51:29;102732.75;;;7.43;96.59
16255;BME280;8235;52.198;9.904;2023-02-14T10:54:10;102734.44;;;7.49;95.83
16255;BME280;8235;52.198;9.904;2023-02-14T10:56:44;102728.09;;;7.56;95.10
16255;BME280;8235;52.198;9.904;2023-02-14T10:59:18;102718.28;;;7.62;93.90
16255;BME280;8235;52.198;9.904;2023-02-14T11:01:48;102719.94;;;7.68;92.96
16255;BME280;8235;52.198;9.904;2023-02-14T11:04:17;102710.97;;;7.74;92.17
16255;BME280;8235;52.198;9.904;2023-02-14T11:06:46;102714.34;;;7.83;91.45
16255;BME280;8235;52.198;9.904;2023-02-14T11:09:16;102707.06;;;7.93;90.91
16255;BME280;8235;52.198;9.904;2023-02-14T11:11:46;102702.47;;;8.02;90.23
16255;BME280;8235;52.198;9.904;2023-02-14T11:14:19;102696.03;;;8.14;89.80
16255;BME280;8235;52.198;9.904;2023-02-14T11:16:47;102693.22;;;8.22;89.70
16255;BME280;8235;52.198;9.904;2023-02-14T11:19:20;102690.41;;;8.29;89.19
16255;BME280;8235;52.198;9.904;2023-02-14T11:21:50;102691.16;;;8.38;88.74
16255;BME280;8235;52.198;9.904;2023-02-14T11:24:18;102674.16;;;8.45;88.50
16255;BME280;8235;52.198;9.904;2023-02-14T11:26:46;102679.34;;;8.51;87.62
16255;BME280;8235;52.198;9.904;2023-02-14T11:29:15;102676.53;;;8.58;87.15
16255;BME280;8235;52.198;9.904;2023-02-14T11:31:46;102679.91;;;8.65;86.65
16255;BME280;8235;52.198;9.904;2023-02-14T11:34:24;102673.59;;;8.70;86.32
16255;BME280;8235;52.198;9.904;2023-02-14T11:36:55;102673.38;;;8.78;85.57
16255;BME280;8235;52.198;9.904;2023-02-14T11:39:27;102661.75;;;8.84;84.91
16255;BME280;8235;52.198;9.904;2023-02-14T11:41:57;102663.38;;;8.89;85.23
16255;BME280;8235;52.198;9.904;2023-02-14T11:44:28;102664.97;;;8.96;84.42
16255;BME280;8235;52.198;9.904;2023-02-14T11:46:56;102656.91;;;8.99;84.63
16255;BME280;8235;52.198;9.904;2023-02-14T11:49:32;102652.34;;;9.06;84.26
16255;BME280;8235;52.198;9.904;2023-02-14T11:52:08;102653.06;;;9.13;84.12
16255;BME280;8235;52.198;9.904;2023-02-14T11:54:37;102648.53;;;9.16;83.72
16255;BME280;8235;52.198;9.904;2023-02-14T11:57:06;102650.19;;;9.20;83.82
16255;BME280;8235;52.198;9.904;2023-02-14T11:59:37;102650.13;;;9.23;83.59
16255;BME280;8235;52.198;9.904;2023-02-14T12:02:17;102641.16;;;9.27;83.14
16255;BME280;8235;52.198;9.904;2023-02-14T12:04:50;102645.50;;;9.31;82.76
16255;BME280;8235;52.198;9.904;2023-02-14T12:07:22;102645.31;;;9.37;83.51
16255;BME280;8235;52.198;9.904;2023-02-14T12:12:54;102636.22;;;9.46;82.43
16255;BME280;8235;52.198;9.904;2023-02-14T12:15:32;102633.41;;;9.51;82.30
16255;BME280;8235;52.198;9.904;2023-02-14T12:18:20;102620.84;;;9.57;82.38
16255;BME280;8235;52.198;9.904;2023-02-14T12:20:51;102622.47;;;9.63;82.44
16255;BME280;8235;52.198;9.904;2023-02-14T12:23:23;102617.94;;;9.66;82.12
16255;BME280;8235;52.198;9.904;2023-02-14T12:25:56;102613.38;;;9.70;81.96
16255;BME280;8235;52.198;9.904;2023-02-14T12:28:30;102613.31;;;9.71;82.04
16255;BME280;8235;52.198;9.904;2023-02-14T12:31:06;102595.53;;;9.73;82.11
16255;BME280;8235;52.198;9.904;2023-02-14T12:33:34;102593.63;;;9.79;81.84
16255;BME280;8235;52.198;9.904;2023-02-14T12:36:08;102592.66;;;9.81;81.83
16255;BME280;8235;52.198;9.904;2023-02-14T12:38:43;102585.47;;;9.85;81.47
16255;BME280;8235;52.198;9.904;2023-02-14T12:41:24;102580.84;;;9.90;81.58
16255;BME280;8235;52.198;9.904;2023-02-14T12:43:56;102579.84;;;9.94;81.23
16255;BME280;8235;52.198;9.904;2023-02-14T12:46:35;102578.84;;;9.98;81.18
16255;BME280;8235;52.198;9.904;2023-02-14T12:49:26;102580.50;;;10.02;80.78
16255;BME280;8235;52.198;9.904;2023-02-14T12:52:00;102568.81;;;10.06;80.47
16255;BME280;8235;52.198;9.904;2023-02-14T12:54:41;102573.06;;;10.13;80.38
16255;BME280;8235;52.198;9.904;2023-02-14T12:57:27;102568.56;;;10.15;80.06
16255;BME280;8235;52.198;9.904;2023-02-14T13:00:00;102564.91;;;10.19;79.73
16255;BME280;8235;52.198;9.904;2023-02-14T13:02:43;102555.06;;;10.21;79.76
16255;BME280;8235;52.198;9.904;2023-02-14T13:05:19;102553.19;;;10.25;79.33
16255;BME280;8235;52.198;9.904;2023-02-14T13:08:05;102547.75;;;10.28;78.43
16255;BME280;8235;52.198;9.904;2023-02-14T13:10:44;102546.78;;;10.30;77.26
16255;BME280;8235;52.198;9.904;2023-02-14T13:13:20;102542.31;;;10.32;76.34
16255;BME280;8235;52.198;9.904;2023-02-14T13:15:57;102541.28;;;10.36;75.19
16255;BME280;8235;52.198;9.904;2023-02-14T13:18:35;102541.94;;;10.43;74.12
16255;BME280;8235;52.198;9.904;2023-02-14T13:21:09;102536.41;;;10.49;73.33
16255;BME280;8235;52.198;9.904;2023-02-14T13:23:39;102530.03;;;10.55;72.39